createdAt,value
2019-05-26T00:01:46.558Z,9.47
2019-05-26T00:06:49.995Z,11.87
2019-05-26T00:11:53.366Z,10.97
2019-05-26T00:16:57.409Z,11.30
2019-05-26T00:22:00.817Z,10.37
2019-05-26T00:27:04.366Z,11.17
2019-05-26T00:32:07.710Z,12.07
2019-05-26T00:37:11.046Z,10.20
2019-05-26T00:42:14.470Z,12.50
2019-05-26T00:47:17.812Z,10.60
2019-05-26T00:52:21.186Z,12.93
2019-05-26T00:57:24.596Z,12.77
2019-05-26T01:02:27.931Z,12.17
2019-05-26T01:07:31.294Z,11.70
2019-05-26T01:12:34.658Z,11.73
2019-05-26T01:17:38.027Z,11.83
2019-05-26T01:22:41.376Z,11.87
2019-05-26T01:27:44.732Z,13.30
2019-05-26T01:32:48.118Z,12.80
2019-05-26T01:37:51.464Z,10.63
2019-05-26T01:42:54.990Z,12.70
2019-05-26T01:47:58.501Z,14.10
2019-05-26T01:53:01.897Z,12.50
2019-05-26T01:58:05.678Z,13.07
2019-05-26T02:03:09.063Z,10.07
2019-05-26T02:08:12.784Z,10.90
2019-05-26T02:13:16.548Z,10.43
2019-05-26T02:18:19.934Z,11.83
2019-05-26T02:23:23.433Z,13.57
2019-05-26T02:28:26.910Z,18.77
2019-05-26T02:33:30.295Z,10.70
2019-05-26T02:38:33.764Z,13.30
2019-05-26T02:43:37.337Z,12.73
2019-05-26T02:48:40.646Z,12.17
2019-05-26T02:53:44.039Z,11.93
2019-05-26T02:58:47.380Z,13.80
2019-05-26T03:03:51.580Z,13.40
2019-05-26T03:08:56.695Z,13.20
2019-05-26T03:14:01.583Z,10.90
2019-05-26T03:19:05.772Z,12.60
2019-05-26T03:24:09.246Z,12.10
2019-05-26T03:29:12.748Z,12.03
2019-05-26T03:34:16.087Z,14.67
2019-05-26T03:39:19.484Z,12.68
2019-05-26T03:44:23.002Z,13.17
2019-05-26T03:49:26.446Z,12.40
2019-05-26T03:54:29.814Z,12.80
2019-05-26T03:59:33.286Z,10.83
2019-05-26T04:04:36.622Z,12.77
2019-05-26T04:09:40.025Z,13.50
2019-05-26T04:14:43.406Z,14.27
2019-05-26T04:19:46.735Z,14.47
2019-05-26T04:24:50.195Z,13.00
2019-05-26T04:29:53.568Z,14.43
2019-05-26T04:34:56.944Z,15.40
2019-05-26T04:40:00.273Z,15.93
2019-05-26T04:45:05.714Z,13.17
2019-05-26T04:50:09.502Z,13.40
2019-05-26T04:55:12.997Z,10.40
2019-05-26T05:00:16.335Z,10.50
2019-05-26T05:05:20.028Z,11.83
2019-05-26T05:10:23.444Z,13.77
2019-05-26T05:15:26.863Z,13.90
2019-05-26T05:20:30.290Z,14.63
2019-05-26T05:25:33.694Z,11.73
2019-05-26T05:30:37.005Z,11.37
2019-05-26T05:35:40.370Z,14.03
2019-05-26T05:40:58.323Z,13.43
2019-05-26T05:45:49.983Z,13.27
2019-05-26T05:50:53.330Z,14.83
2019-05-26T05:55:56.791Z,19.43
2019-05-26T06:01:00.212Z,15.83
2019-05-26T06:06:03.563Z,14.70
2019-05-26T06:11:16.010Z,17.63
2019-05-26T06:16:12.088Z,16.13
2019-05-26T06:21:15.457Z,14.70
2019-05-26T06:26:18.825Z,16.33
2019-05-26T06:31:22.235Z,18.83
2019-05-26T06:36:25.595Z,14.90
2019-05-26T06:41:33.896Z,14.03
2019-05-26T06:46:34.421Z,17.20
2019-05-26T06:51:37.810Z,15.93
2019-05-26T06:56:41.227Z,17.33
2019-05-26T07:01:44.639Z,14.20
2019-05-26T07:06:48.050Z,14.03
2019-05-26T07:11:59.711Z,12.77
2019-05-26T07:16:56.652Z,13.70
2019-05-26T07:22:00.138Z,13.33
2019-05-26T07:27:04.048Z,13.50
2019-05-26T07:32:07.358Z,14.67
2019-05-26T07:37:10.762Z,13.40
2019-05-26T07:42:14.115Z,14.30
2019-05-26T07:47:17.592Z,13.07
2019-05-26T07:52:20.951Z,13.32
2019-05-26T07:57:24.392Z,14.63
2019-05-26T08:02:27.784Z,13.07
2019-05-26T08:07:31.139Z,11.80
2019-05-26T08:12:34.653Z,11.30
2019-05-26T08:17:38.001Z,12.83
2019-05-26T08:22:41.401Z,11.73
2019-05-26T08:27:44.757Z,9.93
2019-05-26T08:32:48.237Z,12.40
2019-05-26T08:37:51.707Z,9.80
2019-05-26T08:42:55.116Z,7.67
2019-05-26T08:47:58.496Z,10.17
2019-05-26T08:53:01.955Z,9.37
2019-05-26T08:58:05.577Z,8.17
2019-05-26T09:03:09.396Z,4.70
2019-05-26T09:08:12.896Z,5.47
2019-05-26T09:13:16.485Z,7.23
2019-05-26T09:18:19.835Z,6.57
2019-05-26T09:23:23.234Z,7.63
2019-05-26T09:28:26.563Z,2.63
2019-05-26T09:33:30.008Z,5.50
2019-05-26T09:38:33.365Z,4.50
2019-05-26T09:43:36.714Z,4.23
2019-05-26T09:48:40.078Z,5.37
2019-05-26T09:53:43.586Z,4.87
2019-05-26T09:58:46.957Z,3.77
2019-05-26T10:03:50.316Z,4.57
2019-05-26T10:08:53.773Z,5.53
2019-05-26T10:13:57.158Z,3.13
2019-05-26T10:19:00.537Z,4.53
2019-05-26T10:24:04.048Z,4.87
2019-05-26T10:29:07.481Z,3.17
2019-05-26T10:34:13.693Z,2.37
2019-05-26T10:39:15.918Z,5.80
2019-05-26T10:44:19.377Z,2.00
2019-05-26T10:49:22.870Z,3.67
2019-05-26T10:54:26.397Z,2.50
2019-05-26T10:59:31.287Z,1.80
2019-05-26T11:04:35.011Z,3.77
2019-05-26T11:09:38.352Z,2.53
2019-05-26T11:14:41.698Z,4.73
2019-05-26T11:19:45.034Z,3.37
2019-05-26T11:24:48.504Z,1.67
2019-05-26T11:29:51.907Z,2.53
2019-05-26T11:35:01.511Z,4.20
2019-05-26T11:40:00.424Z,1.80
2019-05-26T11:45:08.860Z,2.63
2019-05-26T11:50:12.467Z,2.83
2019-05-26T11:55:16.145Z,8.48
2019-05-26T12:00:19.562Z,1.67
2019-05-26T12:05:22.999Z,3.90
2019-05-26T12:10:26.931Z,4.50
2019-05-26T12:15:30.436Z,2.00
2019-05-26T12:20:33.862Z,2.00
2019-05-26T12:25:37.263Z,1.80
2019-05-26T12:30:40.609Z,5.57
2019-05-26T12:35:45.815Z,2.67
2019-05-26T12:40:49.145Z,1.47
2019-05-26T12:45:52.550Z,1.43
2019-05-26T12:50:55.913Z,1.67
2019-05-26T12:55:59.251Z,2.50
2019-05-26T13:01:02.614Z,1.80
2019-05-26T13:06:06.572Z,1.90
2019-05-26T13:11:09.882Z,1.97
2019-05-26T13:16:13.422Z,1.57
2019-05-26T13:21:16.817Z,2.37
2019-05-26T13:26:20.175Z,1.67
2019-05-26T13:31:23.555Z,1.77
2019-05-26T13:36:27.027Z,2.13
2019-05-26T13:41:30.364Z,2.33
2019-05-26T13:46:33.868Z,2.70
2019-05-26T13:51:37.223Z,2.23
2019-05-26T13:56:40.582Z,1.67
2019-05-26T14:01:43.975Z,2.90
2019-05-26T14:06:47.404Z,1.87
2019-05-26T14:11:50.775Z,3.37
2019-05-26T14:16:55.393Z,2.30
2019-05-26T14:21:58.721Z,3.67
2019-05-26T14:27:02.219Z,2.07
2019-05-26T14:32:06.432Z,3.75
2019-05-26T14:37:09.939Z,2.33
2019-05-26T14:42:13.296Z,2.20
2019-05-26T14:47:16.696Z,1.50
2019-05-26T14:52:20.085Z,1.60
2019-05-26T14:57:23.549Z,1.87
2019-05-26T15:02:26.990Z,4.93
2019-05-26T15:07:30.364Z,2.20
2019-05-26T15:12:33.856Z,1.80
2019-05-26T15:17:37.221Z,2.50
2019-05-26T15:22:40.612Z,2.73
2019-05-26T15:27:46.541Z,2.90
2019-05-26T15:32:49.077Z,1.77
2019-05-26T15:37:52.443Z,1.97
2019-05-26T15:42:55.818Z,2.43
2019-05-26T15:47:59.252Z,1.50
2019-05-26T15:53:02.671Z,2.00
2019-05-26T15:58:06.042Z,3.30
2019-05-26T16:03:09.411Z,2.50
2019-05-26T16:08:12.736Z,2.83
2019-05-26T16:13:16.091Z,1.53
2019-05-26T16:18:19.478Z,2.47
2019-05-26T16:23:22.900Z,10.43
2019-05-26T16:28:26.268Z,2.23
2019-05-26T16:33:29.652Z,2.00
2019-05-26T16:38:32.992Z,1.80
2019-05-26T16:43:36.686Z,3.07
2019-05-26T16:48:40.101Z,3.23
2019-05-26T16:53:43.535Z,3.30
2019-05-26T16:58:46.940Z,2.33
2019-05-26T17:03:50.373Z,2.10
2019-05-26T17:08:53.771Z,2.33
2019-05-26T17:13:57.100Z,3.27
2019-05-26T17:19:00.506Z,2.83
2019-05-26T17:24:03.941Z,3.83
2019-05-26T17:29:07.392Z,4.10
2019-05-26T17:34:10.786Z,2.30
2019-05-26T17:39:14.153Z,2.10
2019-05-26T17:44:17.621Z,2.17
2019-05-26T17:49:20.976Z,3.40
2019-05-26T17:54:24.375Z,2.47
2019-05-26T17:59:27.987Z,2.63
2019-05-26T18:04:31.814Z,2.83
2019-05-26T18:09:43.676Z,3.57
2019-05-26T18:14:40.955Z,2.43
2019-05-26T18:19:44.391Z,2.67
2019-05-26T18:24:56.582Z,2.60
2019-05-26T18:29:52.978Z,5.37
2019-05-26T18:34:56.330Z,4.77
2019-05-26T18:39:59.763Z,5.23
2019-05-26T18:45:03.840Z,7.90
2019-05-26T18:50:07.546Z,4.00
2019-05-26T18:55:10.863Z,2.83
2019-05-26T19:00:15.094Z,2.47
2019-05-26T19:05:32.405Z,3.60
2019-05-26T19:10:26.267Z,2.67
2019-05-26T19:15:29.927Z,2.77
2019-05-26T19:20:33.366Z,3.87
2019-05-26T19:25:36.826Z,6.27
2019-05-26T19:30:40.137Z,4.07
2019-05-26T19:35:43.529Z,3.37
2019-05-26T19:40:46.897Z,6.00
2019-05-26T19:45:50.234Z,4.50
2019-05-26T19:50:53.593Z,8.73
2019-05-26T19:55:57.193Z,4.63
2019-05-26T20:01:01.322Z,2.67
2019-05-26T20:06:05.165Z,3.43
2019-05-26T20:11:08.580Z,2.67
2019-05-26T20:16:12.558Z,3.43
2019-05-26T20:21:15.998Z,3.97
2019-05-26T20:26:19.549Z,4.30
2019-05-26T20:31:23.020Z,3.80
2019-05-26T20:36:26.440Z,3.50
2019-05-26T20:41:30.005Z,5.30
2019-05-26T20:46:33.518Z,4.70
2019-05-26T20:51:36.957Z,5.83
2019-05-26T20:56:40.299Z,8.20
2019-05-26T21:01:43.749Z,5.73
2019-05-26T21:06:47.156Z,5.00
2019-05-26T21:11:50.542Z,5.13
2019-05-26T21:16:53.982Z,5.73
2019-05-26T21:21:57.288Z,3.80
2019-05-26T21:27:00.941Z,5.43
2019-05-26T21:32:04.247Z,8.20
2019-05-26T21:37:07.900Z,8.63
2019-05-26T21:42:11.376Z,5.67
2019-05-26T21:47:14.692Z,5.27
2019-05-26T21:52:18.171Z,6.17
2019-05-26T21:57:21.715Z,6.67
2019-05-26T22:02:25.123Z,5.53
2019-05-26T22:07:28.642Z,7.47
2019-05-26T22:12:32.784Z,10.07
2019-05-26T22:17:36.166Z,5.67
2019-05-26T22:22:39.597Z,5.67
2019-05-26T22:27:43.173Z,7.20
2019-05-26T22:32:46.761Z,6.67
2019-05-26T22:37:50.190Z,5.17
2019-05-26T22:42:53.569Z,5.90
2019-05-26T22:47:57.045Z,8.03
2019-05-26T22:53:00.415Z,5.33
2019-05-26T22:58:03.808Z,5.43
2019-05-26T23:03:07.160Z,5.73
2019-05-26T23:08:10.516Z,5.57
2019-05-26T23:13:13.875Z,9.17
2019-05-26T23:18:17.283Z,5.90
2019-05-26T23:23:20.722Z,5.77
2019-05-26T23:28:24.014Z,5.77
2019-05-26T23:33:27.433Z,6.17
2019-05-26T23:38:30.822Z,5.47
2019-05-26T23:43:34.157Z,5.63
2019-05-26T23:48:37.527Z,6.33
2019-05-26T23:53:40.978Z,6.73
2019-05-26T23:58:44.510Z,7.70
